GB-0472 weather

Titsey Airstrip
England, United Kingdom

Public forecast

Using degrees Celsius for public forecast. Weather courtesy of forecast.io.

Closest aviation weather report (METAR) to Titsey Airstrip

Report is more than 2 hours old.

Closest report is London Biggin Hill Airport, 3.3 nm (6.2 km) N. Retrieved 2020/02/18 22:20 UTC (5 hours ago):

EGKB 182220Z 26012KT 9999 FEW015 05/02 Q1015

Closest aviation forecast (TAF) to Titsey Airstrip

Forecast is more than 12 hours old.

Closest forecast is London Biggin Hill Airport, 3.3 nm (6.2 km) N. Retrieved 2019/07/13 18:09 UTC (7 months ago):

TAF EGKB 131706Z 1318/1422 03009KT 9999 SCT040 PROB30 TEMPO 1318/1320 8000 -SHRA